EmailTwitter


Surface observations / United Kingdom / EGTE (03839)

Regions: Quebec | Canada | USA | Europe | France | UK | Elsewhere
Station
Display
Info & Location for EGTE (03839) | Help decoding METAR

Weather Conditions observed on 2019/05/25 at 21:20 UTC at EXETER AIRPORT, UK (EGTE)

Sky conditions: variable clouds.

Temperature: 14.0 Celsius.

Dewpoint: 13.0 Celsius.

Relative Humidity: 94%

Winds: West at 11 km/h or 6 knots.

Mean Sea level Pressure: 102.00 kilopascals.

Horizontal visibility: 6.21 statute miles or 9.94 kilometers.

Coded METAR:

EGTE 252120Z 27006KT 9999 SCT012 14/13 Q1020=